sensor_id;sensor_type;location;lat;lon;timestamp;pressure;altitude;pressure_sealevel;temperature;humidity
55801;BME280;41730;51.960;20.158;2022-12-24T00:00:39;99137.34;;;8.06;80.13
55801;BME280;41730;51.960;20.158;2022-12-24T00:03:11;99135.20;;;8.04;80.26
55801;BME280;41730;51.960;20.158;2022-12-24T00:05:43;99136.13;;;8.05;79.97
55801;BME280;41730;51.960;20.158;2022-12-24T00:08:14;99138.02;;;7.96;80.47
55801;BME280;41730;51.960;20.158;2022-12-24T00:10:50;99136.61;;;7.78;80.79
55801;BME280;41730;51.960;20.158;2022-12-24T00:13:22;99133.09;;;7.79;80.83
55801;BME280;41730;51.960;20.158;2022-12-24T00:15:54;99135.02;;;7.77;80.97
55801;BME280;41730;51.960;20.158;2022-12-24T00:18:25;99133.40;;;7.77;80.93
55801;BME280;41730;51.960;20.158;2022-12-24T00:20:57;99138.16;;;7.77;81.09
55801;BME280;41730;51.960;20.158;2022-12-24T00:23:28;99138.53;;;7.84;81.02
55801;BME280;41730;51.960;20.158;2022-12-24T00:26:00;99140.99;;;7.98;80.47
55801;BME280;41730;51.960;20.158;2022-12-24T00:28:31;99137.20;;;8.01;80.16
55801;BME280;41730;51.960;20.158;2022-12-24T00:31:10;99143.73;;;7.99;80.13
55801;BME280;41730;51.960;20.158;2022-12-24T00:33:42;99144.90;;;7.89;80.98
55801;BME280;41730;51.960;20.158;2022-12-24T00:36:14;99146.98;;;8.01;80.57
55801;BME280;41730;51.960;20.158;2022-12-24T00:38:46;99148.36;;;8.04;80.24
55801;BME280;41730;51.960;20.158;2022-12-24T00:41:17;99152.17;;;8.02;80.20
55801;BME280;41730;51.960;20.158;2022-12-24T00:44:00;99154.41;;;7.98;80.53
55801;BME280;41730;51.960;20.158;2022-12-24T00:46:33;99149.87;;;7.91;81.03
55801;BME280;41730;51.960;20.158;2022-12-24T00:49:05;99146.89;;;7.93;80.70
55801;BME280;41730;51.960;20.158;2022-12-24T00:51:38;99146.10;;;7.98;80.45
55801;BME280;41730;51.960;20.158;2022-12-24T00:54:09;99142.92;;;7.92;80.78
55801;BME280;41730;51.960;20.158;2022-12-24T00:56:41;99143.66;;;7.80;81.24
55801;BME280;41730;51.960;20.158;2022-12-24T00:59:13;99146.36;;;7.89;80.54
55801;BME280;41730;51.960;20.158;2022-12-24T01:01:45;99148.27;;;7.86;80.61
55801;BME280;41730;51.960;20.158;2022-12-24T01:04:17;99145.35;;;7.92;80.63
55801;BME280;41730;51.960;20.158;2022-12-24T01:07:05;99140.57;;;7.91;80.54
55801;BME280;41730;51.960;20.158;2022-12-24T01:09:37;99139.13;;;7.94;80.41
55801;BME280;41730;51.960;20.158;2022-12-24T01:12:09;99142.56;;;7.76;80.98
55801;BME280;41730;51.960;20.158;2022-12-24T01:14:40;99139.55;;;7.61;81.42
55801;BME280;41730;51.960;20.158;2022-12-24T01:17:12;99134.95;;;7.54;81.74
55801;BME280;41730;51.960;20.158;2022-12-24T01:19:43;99139.23;;;7.53;81.69
55801;BME280;41730;51.960;20.158;2022-12-24T01:22:15;99135.23;;;7.46;82.06
55801;BME280;41730;51.960;20.158;2022-12-24T01:24:47;99134.05;;;7.50;81.90
55801;BME280;41730;51.960;20.158;2022-12-24T01:27:18;99132.98;;;7.52;81.58
55801;BME280;41730;51.960;20.158;2022-12-24T01:29:50;99131.65;;;7.49;81.93
55801;BME280;41730;51.960;20.158;2022-12-24T01:32:22;99132.59;;;7.49;81.70
55801;BME280;41730;51.960;20.158;2022-12-24T01:34:53;99135.05;;;7.53;81.73
55801;BME280;41730;51.960;20.158;2022-12-24T01:37:25;99133.52;;;7.44;81.52
55801;BME280;41730;51.960;20.158;2022-12-24T01:39:56;99129.23;;;7.39;81.48
55801;BME280;41730;51.960;20.158;2022-12-24T01:42:45;99126.52;;;7.26;81.96
55801;BME280;41730;51.960;20.158;2022-12-24T01:45:44;99125.42;;;7.25;81.96
55801;BME280;41730;51.960;20.158;2022-12-24T01:48:20;99127.08;;;7.30;81.91
55801;BME280;41730;51.960;20.158;2022-12-24T01:50:57;99122.02;;;7.20;82.11
55801;BME280;41730;51.960;20.158;2022-12-24T01:53:30;99126.64;;;7.12;82.21
55801;BME280;41730;51.960;20.158;2022-12-24T01:56:03;99124.58;;;7.08;82.62
55801;BME280;41730;51.960;20.158;2022-12-24T01:58:36;99118.96;;;7.15;82.24
55801;BME280;41730;51.960;20.158;2022-12-24T02:01:09;99121.70;;;7.07;82.51
55801;BME280;41730;51.960;20.158;2022-12-24T02:03:41;99124.20;;;7.11;82.39
55801;BME280;41730;51.960;20.158;2022-12-24T02:06:14;99121.95;;;7.11;82.34
55801;BME280;41730;51.960;20.158;2022-12-24T02:08:47;99121.52;;;7.15;82.25
55801;BME280;41730;51.960;20.158;2022-12-24T02:11:21;99123.16;;;7.04;82.46
55801;BME280;41730;51.960;20.158;2022-12-24T02:13:54;99121.84;;;6.95;82.92
55801;BME280;41730;51.960;20.158;2022-12-24T02:16:34;99125.00;;;7.07;82.63
55801;BME280;41730;51.960;20.158;2022-12-24T02:22:14;99120.04;;;7.04;82.69
55801;BME280;41730;51.960;20.158;2022-12-24T02:25:12;99120.48;;;7.09;82.45
55801;BME280;41730;51.960;20.158;2022-12-24T02:27:55;99117.27;;;7.10;82.44
55801;BME280;41730;51.960;20.158;2022-12-24T02:30:31;99121.14;;;7.10;82.39
55801;BME280;41730;51.960;20.158;2022-12-24T02:33:27;99118.61;;;7.04;82.60
55801;BME280;41730;51.960;20.158;2022-12-24T02:36:00;99115.54;;;7.12;82.35
55801;BME280;41730;51.960;20.158;2022-12-24T02:38:38;99113.47;;;7.14;82.00
55801;BME280;41730;51.960;20.158;2022-12-24T02:41:15;99114.09;;;7.09;82.41
55801;BME280;41730;51.960;20.158;2022-12-24T02:43:50;99115.27;;;7.00;82.66
55801;BME280;41730;51.960;20.158;2022-12-24T02:46:26;99115.15;;;6.98;82.80
55801;BME280;41730;51.960;20.158;2022-12-24T02:48:59;99117.51;;;7.05;82.60
55801;BME280;41730;51.960;20.158;2022-12-24T02:51:31;99119.95;;;7.03;82.63
55801;BME280;41730;51.960;20.158;2022-12-24T02:54:03;99123.17;;;7.06;82.44
55801;BME280;41730;51.960;20.158;2022-12-24T02:56:53;99119.51;;;7.06;82.53
55801;BME280;41730;51.960;20.158;2022-12-24T02:59:54;99117.60;;;7.06;82.73
55801;BME280;41730;51.960;20.158;2022-12-24T03:02:39;99116.73;;;7.02;82.69
55801;BME280;41730;51.960;20.158;2022-12-24T03:05:21;99117.05;;;7.13;82.49
55801;BME280;41730;51.960;20.158;2022-12-24T03:08:01;99118.48;;;7.12;82.28
55801;BME280;41730;51.960;20.158;2022-12-24T03:10:39;99117.52;;;6.99;82.81
55801;BME280;41730;51.960;20.158;2022-12-24T03:13:15;99115.55;;;6.91;83.15
55801;BME280;41730;51.960;20.158;2022-12-24T03:15:47;99115.27;;;6.93;83.07
55801;BME280;41730;51.960;20.158;2022-12-24T03:18:23;99115.34;;;6.98;82.97
55801;BME280;41730;51.960;20.158;2022-12-24T03:21:00;99113.67;;;6.99;82.86
55801;BME280;41730;51.960;20.158;2022-12-24T03:23:36;99116.73;;;6.96;83.01
55801;BME280;41730;51.960;20.158;2022-12-24T03:26:09;99119.79;;;6.84;83.49
55801;BME280;41730;51.960;20.158;2022-12-24T03:28:42;99121.17;;;6.76;83.76
55801;BME280;41730;51.960;20.158;2022-12-24T03:31:14;99121.55;;;6.70;84.12
55801;BME280;41730;51.960;20.158;2022-12-24T03:33:47;99118.75;;;6.72;84.07
55801;BME280;41730;51.960;20.158;2022-12-24T03:36:19;99121.69;;;6.79;83.93
55801;BME280;41730;51.960;20.158;2022-12-24T03:38:50;99118.36;;;6.75;84.04
55801;BME280;41730;51.960;20.158;2022-12-24T03:41:22;99118.07;;;6.72;84.28
55801;BME280;41730;51.960;20.158;2022-12-24T03:43:53;99116.48;;;6.72;84.25
55801;BME280;41730;51.960;20.158;2022-12-24T03:46:25;99117.46;;;6.73;84.18
55801;BME280;41730;51.960;20.158;2022-12-24T03:48:57;99118.02;;;6.68;84.37
55801;BME280;41730;51.960;20.158;2022-12-24T03:51:28;99122.35;;;6.71;84.34
55801;BME280;41730;51.960;20.158;2022-12-24T03:54:00;99124.27;;;6.75;84.23
55801;BME280;41730;51.960;20.158;2022-12-24T03:56:31;99126.02;;;6.68;84.34
55801;BME280;41730;51.960;20.158;2022-12-24T03:59:03;99125.26;;;6.65;84.57
55801;BME280;41730;51.960;20.158;2022-12-24T04:01:34;99131.98;;;6.74;84.35
55801;BME280;41730;51.960;20.158;2022-12-24T04:04:06;99127.91;;;6.69;84.39
55801;BME280;41730;51.960;20.158;2022-12-24T04:06:38;99130.10;;;6.65;84.54
55801;BME280;41730;51.960;20.158;2022-12-24T04:09:09;99131.33;;;6.68;84.43
55801;BME280;41730;51.960;20.158;2022-12-24T04:11:41;99126.18;;;6.64;84.57
55801;BME280;41730;51.960;20.158;2022-12-24T04:14:12;99126.75;;;6.57;84.76
55801;BME280;41730;51.960;20.158;2022-12-24T04:16:44;99124.55;;;6.55;84.83
55801;BME280;41730;51.960;20.158;2022-12-24T04:19:16;99120.05;;;6.58;84.68
55801;BME280;41730;51.960;20.158;2022-12-24T04:21:47;99117.98;;;6.56;84.77
55801;BME280;41730;51.960;20.158;2022-12-24T04:24:19;99114.30;;;6.52;85.00
55801;BME280;41730;51.960;20.158;2022-12-24T04:26:50;99111.77;;;6.51;84.98
55801;BME280;41730;51.960;20.158;2022-12-24T04:29:22;99111.93;;;6.45;85.30
55801;BME280;41730;51.960;20.158;2022-12-24T04:31:57;99111.06;;;6.55;84.88
55801;BME280;41730;51.960;20.158;2022-12-24T04:34:37;99116.04;;;6.50;84.97
55801;BME280;41730;51.960;20.158;2022-12-24T04:37:10;99111.71;;;6.54;84.93
55801;BME280;41730;51.960;20.158;2022-12-24T04:39:42;99113.47;;;6.62;84.66
55801;BME280;41730;51.960;20.158;2022-12-24T04:42:13;99117.34;;;6.59;84.73
55801;BME280;41730;51.960;20.158;2022-12-24T04:44:45;99113.77;;;6.56;84.73
55801;BME280;41730;51.960;20.158;2022-12-24T04:47:16;99111.70;;;6.52;84.82
55801;BME280;41730;51.960;20.158;2022-12-24T04:49:47;99115.55;;;6.46;85.02
55801;BME280;41730;51.960;20.158;2022-12-24T04:52:19;99110.77;;;6.38;85.43
55801;BME280;41730;51.960;20.158;2022-12-24T04:54:51;99108.70;;;6.34;85.59
55801;BME280;41730;51.960;20.158;2022-12-24T04:57:25;99113.78;;;6.29;85.91
55801;BME280;41730;51.960;20.158;2022-12-24T04:59:57;99114.34;;;6.43;85.40
55801;BME280;41730;51.960;20.158;2022-12-24T05:02:28;99118.29;;;6.58;84.75
55801;BME280;41730;51.960;20.158;2022-12-24T05:05:00;99120.08;;;6.66;84.24
55801;BME280;41730;51.960;20.158;2022-12-24T05:07:32;99119.95;;;6.53;84.67
55801;BME280;41730;51.960;20.158;2022-12-24T05:10:05;99119.43;;;6.43;85.01
55801;BME280;41730;51.960;20.158;2022-12-24T05:12:36;99124.30;;;6.41;85.28
55801;BME280;41730;51.960;20.158;2022-12-24T05:15:09;99121.52;;;6.41;85.21
55801;BME280;41730;51.960;20.158;2022-12-24T05:17:40;99126.08;;;6.38;85.33
55801;BME280;41730;51.960;20.158;2022-12-24T05:20:12;99122.72;;;6.35;85.52
55801;BME280;41730;51.960;20.158;2022-12-24T05:22:44;99122.45;;;6.30;85.82
55801;BME280;41730;51.960;20.158;2022-12-24T05:25:36;99126.12;;;6.29;85.74
55801;BME280;41730;51.960;20.158;2022-12-24T05:28:26;99126.45;;;6.28;85.91
55801;BME280;41730;51.960;20.158;2022-12-24T05:30:57;99123.70;;;6.33;85.53
55801;BME280;41730;51.960;20.158;2022-12-24T05:33:29;99122.76;;;6.32;85.49
55801;BME280;41730;51.960;20.158;2022-12-24T05:36:01;99124.00;;;6.32;85.60
55801;BME280;41730;51.960;20.158;2022-12-24T05:38:32;99128.56;;;6.33;85.66
55801;BME280;41730;51.960;20.158;2022-12-24T05:41:04;99126.95;;;6.49;85.06
55801;BME280;41730;51.960;20.158;2022-12-24T05:43:37;99129.96;;;6.54;84.62
55801;BME280;41730;51.960;20.158;2022-12-24T05:46:10;99128.66;;;6.51;84.58
55801;BME280;41730;51.960;20.158;2022-12-24T05:48:43;99135.23;;;6.51;84.71
55801;BME280;41730;51.960;20.158;2022-12-24T05:51:16;99132.53;;;6.36;85.11
55801;BME280;41730;51.960;20.158;2022-12-24T05:53:49;99134.16;;;6.27;85.66
55801;BME280;41730;51.960;20.158;2022-12-24T05:56:22;99138.36;;;6.29;85.60
55801;BME280;41730;51.960;20.158;2022-12-24T05:58:54;99138.42;;;6.30;85.40
55801;BME280;41730;51.960;20.158;2022-12-24T06:01:27;99142.06;;;6.22;85.77
55801;BME280;41730;51.960;20.158;2022-12-24T06:03:59;99150.36;;;6.18;85.71
55801;BME280;41730;51.960;20.158;2022-12-24T06:06:31;99144.58;;;6.21;85.38
55801;BME280;41730;51.960;20.158;2022-12-24T06:09:02;99147.04;;;6.18;85.09
55801;BME280;41730;51.960;20.158;2022-12-24T06:11:34;99147.80;;;6.06;85.31
55801;BME280;41730;51.960;20.158;2022-12-24T06:14:06;99149.47;;;6.07;85.17
55801;BME280;41730;51.960;20.158;2022-12-24T06:16:37;99155.05;;;6.20;84.96
55801;BME280;41730;51.960;20.158;2022-12-24T06:19:09;99156.19;;;6.34;84.48
55801;BME280;41730;51.960;20.158;2022-12-24T06:21:41;99156.11;;;6.33;84.42
55801;BME280;41730;51.960;20.158;2022-12-24T06:24:13;99160.13;;;6.16;84.85
55801;BME280;41730;51.960;20.158;2022-12-24T06:26:44;99164.76;;;5.95;85.79
55801;BME280;41730;51.960;20.158;2022-12-24T06:29:16;99165.60;;;5.88;85.95
55801;BME280;41730;51.960;20.158;2022-12-24T06:31:48;99167.13;;;5.89;86.24
55801;BME280;41730;51.960;20.158;2022-12-24T06:34:19;99169.79;;;5.97;86.15
55801;BME280;41730;51.960;20.158;2022-12-24T06:36:51;99172.05;;;5.97;86.14
55801;BME280;41730;51.960;20.158;2022-12-24T06:39:22;99173.08;;;6.04;85.71
55801;BME280;41730;51.960;20.158;2022-12-24T06:41:54;99172.73;;;6.06;85.64
55801;BME280;41730;51.960;20.158;2022-12-24T06:44:26;99173.06;;;6.08;85.49
55801;BME280;41730;51.960;20.158;2022-12-24T06:46:58;99176.28;;;6.09;85.55
55801;BME280;41730;51.960;20.158;2022-12-24T06:49:29;99175.39;;;6.06;85.91
55801;BME280;41730;51.960;20.158;2022-12-24T06:52:01;99174.71;;;6.13;86.10
55801;BME280;41730;51.960;20.158;2022-12-24T06:54:32;99179.89;;;6.14;86.21
55801;BME280;41730;51.960;20.158;2022-12-24T06:57:04;99186.27;;;6.09;86.48
55801;BME280;41730;51.960;20.158;2022-12-24T06:59:36;99187.40;;;6.10;86.51
55801;BME280;41730;51.960;20.158;2022-12-24T07:02:09;99192.70;;;6.09;86.55
55801;BME280;41730;51.960;20.158;2022-12-24T07:04:41;99190.92;;;6.22;86.26
55801;BME280;41730;51.960;20.158;2022-12-24T07:07:12;99193.39;;;6.37;85.68
55801;BME280;41730;51.960;20.158;2022-12-24T07:09:44;99195.17;;;6.51;85.07
55801;BME280;41730;51.960;20.158;2022-12-24T07:12:15;99195.84;;;6.64;84.42
55801;BME280;41730;51.960;20.158;2022-12-24T07:14:47;99200.77;;;6.60;84.50
55801;BME280;41730;51.960;20.158;2022-12-24T07:17:19;99202.33;;;6.51;84.93
55801;BME280;41730;51.960;20.158;2022-12-24T07:19:51;99205.54;;;6.65;84.55
55801;BME280;41730;51.960;20.158;2022-12-24T07:22:22;99207.57;;;6.72;84.10
55801;BME280;41730;51.960;20.158;2022-12-24T07:24:55;99211.17;;;6.58;84.48
55801;BME280;41730;51.960;20.158;2022-12-24T07:27:26;99215.52;;;6.37;85.33
55801;BME280;41730;51.960;20.158;2022-12-24T07:29:58;99213.98;;;6.34;85.79
55801;BME280;41730;51.960;20.158;2022-12-24T07:32:30;99218.70;;;6.34;85.70
55801;BME280;41730;51.960;20.158;2022-12-24T07:35:02;99219.05;;;6.36;85.76
55801;BME280;41730;51.960;20.158;2022-12-24T07:37:34;99219.81;;;6.54;85.10
55801;BME280;41730;51.960;20.158;2022-12-24T07:40:12;99220.77;;;6.71;84.36
55801;BME280;41730;51.960;20.158;2022-12-24T07:42:45;99218.78;;;6.80;84.05
55801;BME280;41730;51.960;20.158;2022-12-24T07:45:17;99223.35;;;6.86;83.68
55801;BME280;41730;51.960;20.158;2022-12-24T07:47:48;99226.41;;;6.89;83.49
55801;BME280;41730;51.960;20.158;2022-12-24T07:50:20;99233.70;;;6.85;83.54
55801;BME280;41730;51.960;20.158;2022-12-24T07:52:52;99233.39;;;6.68;84.21
55801;BME280;41730;51.960;20.158;2022-12-24T07:55:23;99241.32;;;6.64;84.35
55801;BME280;41730;51.960;20.158;2022-12-24T07:57:54;99243.23;;;6.60;84.72
55801;BME280;41730;51.960;20.158;2022-12-24T08:00:26;99243.20;;;6.50;85.08
55801;BME280;41730;51.960;20.158;2022-12-24T08:03:00;99241.98;;;6.56;85.13
55801;BME280;41730;51.960;20.158;2022-12-24T08:05:34;99240.90;;;6.69;84.61
55801;BME280;41730;51.960;20.158;2022-12-24T08:08:06;99244.70;;;6.70;84.37
55801;BME280;41730;51.960;20.158;2022-12-24T08:10:40;99241.70;;;6.64;84.66
55801;BME280;41730;51.960;20.158;2022-12-24T08:13:13;99245.75;;;6.52;85.05
55801;BME280;41730;51.960;20.158;2022-12-24T08:15:45;99249.48;;;6.56;85.19
55801;BME280;41730;51.960;20.158;2022-12-24T08:18:17;99257.66;;;6.67;84.82
55801;BME280;41730;51.960;20.158;2022-12-24T08:20:49;99258.64;;;6.72;84.62
55801;BME280;41730;51.960;20.158;2022-12-24T08:23:20;99260.34;;;6.79;84.38
55801;BME280;41730;51.960;20.158;2022-12-24T08:25:53;99268.45;;;6.73;84.54
55801;BME280;41730;51.960;20.158;2022-12-24T08:28:24;99270.95;;;6.68;84.83
55801;BME280;41730;51.960;20.158;2022-12-24T08:30:57;99275.06;;;6.71;84.73
55801;BME280;41730;51.960;20.158;2022-12-24T08:33:29;99274.94;;;6.67;84.92
55801;BME280;41730;51.960;20.158;2022-12-24T08:36:01;99277.90;;;6.59;85.37
55801;BME280;41730;51.960;20.158;2022-12-24T08:38:33;99277.05;;;6.55;85.53
55801;BME280;41730;51.960;20.158;2022-12-24T08:41:05;99283.77;;;6.54;85.77
55801;BME280;41730;51.960;20.158;2022-12-24T08:43:37;99291.05;;;6.63;85.45
55801;BME280;41730;51.960;20.158;2022-12-24T08:46:08;99291.71;;;6.48;85.87
55801;BME280;41730;51.960;20.158;2022-12-24T08:48:40;99295.41;;;6.50;85.91
55801;BME280;41730;51.960;20.158;2022-12-24T08:51:12;99301.51;;;6.58;85.60
55801;BME280;41730;51.960;20.158;2022-12-24T08:53:44;99303.66;;;6.56;85.65
55801;BME280;41730;51.960;20.158;2022-12-24T08:56:15;99302.48;;;6.62;85.46
55801;BME280;41730;51.960;20.158;2022-12-24T08:58:47;99296.95;;;6.55;85.79
55801;BME280;41730;51.960;20.158;2022-12-24T09:01:19;99291.73;;;6.61;85.72
55801;BME280;41730;51.960;20.158;2022-12-24T09:03:51;99300.21;;;6.79;85.09
55801;BME280;41730;51.960;20.158;2022-12-24T09:06:23;99301.33;;;6.72;85.25
55801;BME280;41730;51.960;20.158;2022-12-24T09:08:54;99307.06;;;6.63;85.74
55801;BME280;41730;51.960;20.158;2022-12-24T09:11:27;99304.70;;;6.73;85.53
55801;BME280;41730;51.960;20.158;2022-12-24T09:13:59;99305.35;;;6.69;85.78
55801;BME280;41730;51.960;20.158;2022-12-24T09:16:30;99307.92;;;6.66;85.91
55801;BME280;41730;51.960;20.158;2022-12-24T09:19:02;99317.35;;;6.70;85.84
55801;BME280;41730;51.960;20.158;2022-12-24T09:21:34;99318.84;;;6.66;85.79
55801;BME280;41730;51.960;20.158;2022-12-24T09:24:06;99322.52;;;6.70;85.67
55801;BME280;41730;51.960;20.158;2022-12-24T09:26:38;99319.91;;;6.87;85.15
55801;BME280;41730;51.960;20.158;2022-12-24T09:29:10;99328.02;;;6.93;84.66
55801;BME280;41730;51.960;20.158;2022-12-24T09:31:42;99330.47;;;6.90;85.11
55801;BME280;41730;51.960;20.158;2022-12-24T09:34:14;99332.38;;;6.97;84.67
55801;BME280;41730;51.960;20.158;2022-12-24T09:36:46;99335.38;;;7.01;84.42
55801;BME280;41730;51.960;20.158;2022-12-24T09:39:17;99335.05;;;6.92;84.58
55801;BME280;41730;51.960;20.158;2022-12-24T09:41:57;99339.08;;;6.96;84.56
55801;BME280;41730;51.960;20.158;2022-12-24T09:44:39;99341.70;;;6.98;84.39
55801;BME280;41730;51.960;20.158;2022-12-24T09:47:20;99345.08;;;6.97;84.65
55801;BME280;41730;51.960;20.158;2022-12-24T09:49:55;99350.64;;;6.91;84.64
55801;BME280;41730;51.960;20.158;2022-12-24T09:52:32;99355.70;;;6.91;84.91
55801;BME280;41730;51.960;20.158;2022-12-24T09:55:12;99356.98;;;6.88;84.93
55801;BME280;41730;51.960;20.158;2022-12-24T09:57:48;99358.98;;;6.89;84.95
55801;BME280;41730;51.960;20.158;2022-12-24T10:00:24;99362.77;;;6.92;84.86
55801;BME280;41730;51.960;20.158;2022-12-24T10:02:56;99360.67;;;6.90;84.93
55801;BME280;41730;51.960;20.158;2022-12-24T10:05:36;99366.41;;;6.83;84.87
55801;BME280;41730;51.960;20.158;2022-12-24T10:08:14;99369.17;;;6.81;85.30
55801;BME280;41730;51.960;20.158;2022-12-24T10:10:52;99367.50;;;6.93;84.83
55801;BME280;41730;51.960;20.158;2022-12-24T10:13:33;99374.23;;;6.94;84.65
55801;BME280;41730;51.960;20.158;2022-12-24T10:16:13;99380.64;;;7.01;84.39
55801;BME280;41730;51.960;20.158;2022-12-24T10:18:54;99384.31;;;7.01;84.41
55801;BME280;41730;51.960;20.158;2022-12-24T10:21:34;99390.33;;;7.00;84.31
55801;BME280;41730;51.960;20.158;2022-12-24T10:24:14;99387.27;;;6.88;84.95
55801;BME280;41730;51.960;20.158;2022-12-24T10:26:51;99392.13;;;6.84;85.15
55801;BME280;41730;51.960;20.158;2022-12-24T10:29:28;99390.13;;;6.87;84.92
55801;BME280;41730;51.960;20.158;2022-12-24T10:32:09;99388.61;;;6.78;85.17
55801;BME280;41730;51.960;20.158;2022-12-24T10:34:51;99388.21;;;6.81;85.28
55801;BME280;41730;51.960;20.158;2022-12-24T10:37:25;99393.60;;;6.96;85.06
55801;BME280;41730;51.960;20.158;2022-12-24T10:39:59;99399.59;;;7.02;84.61
55801;BME280;41730;51.960;20.158;2022-12-24T10:42:37;99403.33;;;6.96;84.82
55801;BME280;41730;51.960;20.158;2022-12-24T10:45:22;99411.14;;;6.93;85.05
55801;BME280;41730;51.960;20.158;2022-12-24T10:47:56;99416.36;;;6.93;84.79
55801;BME280;41730;51.960;20.158;2022-12-24T10:50:36;99420.30;;;7.02;84.50
55801;BME280;41730;51.960;20.158;2022-12-24T10:53:16;99427.88;;;6.93;84.40
55801;BME280;41730;51.960;20.158;2022-12-24T10:55:49;99424.17;;;6.76;84.96
55801;BME280;41730;51.960;20.158;2022-12-24T10:58:21;99432.80;;;6.66;85.46
55801;BME280;41730;51.960;20.158;2022-12-24T11:00:53;99435.50;;;6.60;85.55
55801;BME280;41730;51.960;20.158;2022-12-24T11:03:30;99439.91;;;6.52;85.98
55801;BME280;41730;51.960;20.158;2022-12-24T11:06:09;99444.87;;;6.71;85.41
55801;BME280;41730;51.960;20.158;2022-12-24T11:08:43;99448.52;;;6.76;85.08
55801;BME280;41730;51.960;20.158;2022-12-24T11:11:16;99453.42;;;6.87;84.61
55801;BME280;41730;51.960;20.158;2022-12-24T11:13:54;99457.79;;;6.80;84.44
55801;BME280;41730;51.960;20.158;2022-12-24T11:16:29;99455.89;;;6.71;84.91
55801;BME280;41730;51.960;20.158;2022-12-24T11:19:03;99462.54;;;6.73;84.93
55801;BME280;41730;51.960;20.158;2022-12-24T11:21:38;99469.04;;;6.75;84.80
55801;BME280;41730;51.960;20.158;2022-12-24T11:24:23;99470.86;;;6.76;84.84
55801;BME280;41730;51.960;20.158;2022-12-24T11:27:26;99471.31;;;6.72;84.87
55801;BME280;41730;51.960;20.158;2022-12-24T11:30:21;99481.48;;;6.65;85.10
55801;BME280;41730;51.960;20.158;2022-12-24T11:33:20;99487.20;;;6.58;84.95
55801;BME280;41730;51.960;20.158;2022-12-24T11:35:58;99490.39;;;6.55;85.02
55801;BME280;41730;51.960;20.158;2022-12-24T11:38:33;99496.89;;;6.61;84.63
55801;BME280;41730;51.960;20.158;2022-12-24T11:41:08;99501.88;;;6.49;84.86
55801;BME280;41730;51.960;20.158;2022-12-24T11:43:46;99501.88;;;6.42;85.15
55801;BME280;41730;51.960;20.158;2022-12-24T11:46:36;99504.45;;;6.29;85.65
55801;BME280;41730;51.960;20.158;2022-12-24T11:49:16;99506.15;;;6.40;85.42
55801;BME280;41730;51.960;20.158;2022-12-24T11:52:20;99506.76;;;6.51;85.17
55801;BME280;41730;51.960;20.158;2022-12-24T11:55:16;99501.52;;;6.67;84.39
55801;BME280;41730;51.960;20.158;2022-12-24T11:57:52;99504.47;;;6.71;84.12
55801;BME280;41730;51.960;20.158;2022-12-24T12:00:27;99511.51;;;6.68;84.13
55801;BME280;41730;51.960;20.158;2022-12-24T12:03:00;99522.16;;;6.58;84.38
55801;BME280;41730;51.960;20.158;2022-12-24T12:05:35;99527.84;;;6.67;84.33
55801;BME280;41730;51.960;20.158;2022-12-24T12:08:14;99536.09;;;6.70;83.83
55801;BME280;41730;51.960;20.158;2022-12-24T12:10:48;99541.39;;;6.69;83.54
55801;BME280;41730;51.960;20.158;2022-12-24T12:13:25;99537.92;;;6.65;83.76
55801;BME280;41730;51.960;20.158;2022-12-24T12:16:13;99537.93;;;6.57;83.94
55801;BME280;41730;51.960;20.158;2022-12-24T12:18:51;99540.98;;;6.56;84.07
55801;BME280;41730;51.960;20.158;2022-12-24T12:21:27;99548.69;;;6.51;84.25
55801;BME280;41730;51.960;20.158;2022-12-24T12:24:05;99553.32;;;6.34;84.79
55801;BME280;41730;51.960;20.158;2022-12-24T12:26:38;99559.52;;;6.32;85.09
55801;BME280;41730;51.960;20.158;2022-12-24T12:29:22;99561.88;;;6.29;85.05
55801;BME280;41730;51.960;20.158;2022-12-24T12:31:58;99571.23;;;6.39;84.74
55801;BME280;41730;51.960;20.158;2022-12-24T12:34:35;99576.39;;;6.51;83.98
55801;BME280;41730;51.960;20.158;2022-12-24T12:37:11;99581.33;;;6.43;84.13
55801;BME280;41730;51.960;20.158;2022-12-24T12:39:45;99585.98;;;6.37;84.37
55801;BME280;41730;51.960;20.158;2022-12-24T12:42:24;99591.82;;;6.29;84.83
55801;BME280;41730;51.960;20.158;2022-12-24T12:45:08;99597.95;;;6.28;85.06
55801;BME280;41730;51.960;20.158;2022-12-24T12:48:01;99597.71;;;6.32;84.79
55801;BME280;41730;51.960;20.158;2022-12-24T12:50:42;99604.27;;;6.25;84.98
55801;BME280;41730;51.960;20.158;2022-12-24T12:53:29;99610.59;;;6.29;84.90
55801;BME280;41730;51.960;20.158;2022-12-24T12:56:09;99613.77;;;6.33;84.80
55801;BME280;41730;51.960;20.158;2022-12-24T12:58:50;99617.98;;;6.30;84.73
55801;BME280;41730;51.960;20.158;2022-12-24T13:01:28;99624.05;;;6.26;84.97
55801;BME280;41730;51.960;20.158;2022-12-24T13:04:27;99624.12;;;6.26;85.02
55801;BME280;41730;51.960;20.158;2022-12-24T13:07:28;99633.38;;;6.27;84.99
55801;BME280;41730;51.960;20.158;2022-12-24T13:10:27;99642.44;;;6.25;84.88
55801;BME280;41730;51.960;20.158;2022-12-24T13:16:18;99646.84;;;6.27;85.00
55801;BME280;41730;51.960;20.158;2022-12-24T13:19:00;99654.98;;;6.36;84.46
55801;BME280;41730;51.960;20.158;2022-12-24T13:21:36;99655.55;;;6.33;84.34
55801;BME280;41730;51.960;20.158;2022-12-24T13:24:17;99657.36;;;6.30;84.56
55801;BME280;41730;51.960;20.158;2022-12-24T13:27:05;99659.14;;;6.25;84.71
55801;BME280;41730;51.960;20.158;2022-12-24T13:29:50;99663.61;;;6.30;84.79
55801;BME280;41730;51.960;20.158;2022-12-24T13:32:37;99661.34;;;6.35;84.32
55801;BME280;41730;51.960;20.158;2022-12-24T13:35:28;99661.52;;;6.21;84.73
55801;BME280;41730;51.960;20.158;2022-12-24T13:38:41;99669.38;;;6.23;84.94
55801;BME280;41730;51.960;20.158;2022-12-24T13:44:29;99677.83;;;6.29;84.86
55801;BME280;41730;51.960;20.158;2022-12-24T13:50:16;99686.11;;;6.35;84.44
55801;BME280;41730;51.960;20.158;2022-12-24T13:52:53;99694.42;;;6.37;84.51
55801;BME280;41730;51.960;20.158;2022-12-24T13:55:26;99698.81;;;6.47;84.12